Time;durP1;ratioP1;P1;durP2;ratioP2;P2;SDS_P1;SDS_P2;PMS_P1;PMS_P2;Temp;Humidity;BMP_temperature;BMP_pressure;BME280_temperature;BME280_humidity;BME280_pressure;Samples;Min_cycle;Max_cycle;Signal;HPM_P1;HPM_P2
2023/01/29 00:02:06;;;;;;;;;6.40;6.40;;;;;;;;5298240;27;8781;-74
2023/01/29 00:04:37;;;;;;;;;3.20;3.20;;;;;;;;5315103;27;8765;-74
2023/01/29 00:07:27;;;;;;;;;6.80;6.00;;;;;;;;5333726;27;8855;-72
2023/01/29 00:09:58;;;;;;;;;1.00;1.00;;;;;;;;5297748;27;8782;-72
2023/01/29 00:12:29;;;;;;;;;6.00;4.40;;;;;;;;5315329;27;8789;-71
2023/01/29 00:15:19;;;;;;;;;4.00;4.00;;;;;;;;5315220;27;8745;-71
2023/01/29 00:17:50;;;;;;;;;3.00;3.00;;;;;;;;5333478;27;8858;-72
2023/01/29 00:20:21;;;;;;;;;4.20;3.60;;;;;;;;5333141;27;8796;-71
2023/01/29 00:22:53;;;;;;;;;0.00;0.00;;;;;;;;5333081;27;8757;-72
2023/01/29 00:25:42;;;;;;;;;12.00;10.40;;;;;;;;5300017;27;8766;-71
2023/01/29 00:28:14;;;;;;;;;5.60;5.60;;;;;;;;5280468;27;8770;-71
2023/01/29 00:30:45;;;;;;;;;10.40;10.40;;;;;;;;5314933;27;8923;-71
2023/01/29 00:33:16;;;;;;;;;4.20;4.20;;;;;;;;5297475;27;8754;-71
2023/01/29 00:35:47;;;;;;;;;5.00;5.00;;;;;;;;5314348;27;8757;-71
2023/01/29 00:38:18;;;;;;;;;2.20;2.20;;;;;;;;5314475;27;9840;-70
2023/01/29 00:46:28;;;;;;;;;14.60;14.60;;;;;;;;5297261;27;8904;-71
2023/01/29 00:48:59;;;;;;;;;10.20;9.40;;;;;;;;5297554;27;8778;-72
2023/01/29 00:51:30;;;;;;;;;14.40;14.40;;;;;;;;5313809;27;9417;-72
2023/01/29 00:54:03;;;;;;;;;6.00;6.00;;;;;;;;5296854;27;8773;-72
2023/01/29 00:56:35;;;;;;;;;6.60;6.60;;;;;;;;5296987;27;8766;-75
2023/01/29 00:59:06;;;;;;;;;12.40;12.40;;;;;;;;5313636;27;8746;-72
2023/01/29 01:04:26;;;;;;;;;4.00;4.00;;;;;;;;5333100;27;8754;-70
2023/01/29 01:06:57;;;;;;;;;3.40;3.40;;;;;;;;5331701;27;8802;-73
2023/01/29 01:12:18;;;;;;;;;1.00;1.00;;;;;;;;5296763;27;8786;-74
2023/01/29 01:15:08;;;;;;;;;5.60;5.60;;;;;;;;5313901;27;8860;-74
2023/01/29 01:17:39;;;;;;;;;0.00;0.00;;;;;;;;5296648;27;8809;-74
2023/01/29 01:20:10;;;;;;;;;1.00;1.00;;;;;;;;5296685;27;8769;-74
2023/01/29 01:22:41;;;;;;;;;3.20;3.20;;;;;;;;5313292;27;8777;-73
2023/01/29 01:25:14;;;;;;;;;3.00;3.00;;;;;;;;5313557;27;8845;-73
2023/01/29 01:27:45;;;;;;;;;1.00;1.00;;;;;;;;5314200;27;8785;-73
2023/01/29 01:30:16;;;;;;;;;3.20;3.20;;;;;;;;5295999;27;8765;-75
2023/01/29 01:32:47;;;;;;;;;3.00;3.00;;;;;;;;5331708;27;8899;-74
2023/01/29 01:35:18;;;;;;;;;3.60;3.60;;;;;;;;5296324;27;9496;-74
2023/01/29 01:37:49;;;;;;;;;3.40;3.40;;;;;;;;5296264;27;8931;-74
2023/01/29 01:40:21;;;;;;;;;3.60;3.60;;;;;;;;5296009;27;8791;-74
2023/01/29 01:42:57;;;;;;;;;1.00;1.00;;;;;;;;5312887;27;8754;-70
2023/01/29 01:45:47;;;;;;;;;3.20;3.20;;;;;;;;5313268;27;8888;-71
2023/01/29 01:48:20;;;;;;;;;6.20;6.20;;;;;;;;5313248;27;8762;-70
2023/01/29 01:51:02;;;;;;;;;4.40;4.40;;;;;;;;5295634;27;8757;-74
2023/01/29 01:53:40;;;;;;;;;5.20;5.20;;;;;;;;5296080;27;8762;-75
2023/01/29 01:56:22;;;;;;;;;1.00;1.00;;;;;;;;5296606;27;9465;-75
2023/01/29 01:58:55;;;;;;;;;3.40;3.40;;;;;;;;5296788;27;8804;-75
2023/01/29 02:01:29;;;;;;;;;0.60;0.00;;;;;;;;5312794;27;8762;-75
2023/01/29 02:10:04;;;;;;;;;3.00;3.00;;;;;;;;5312851;27;8957;-74
2023/01/29 02:12:37;;;;;;;;;3.00;3.00;;;;;;;;5296246;27;9487;-75
2023/01/29 02:15:08;;;;;;;;;6.00;6.00;;;;;;;;5312980;27;8762;-74
2023/01/29 02:17:40;;;;;;;;;1.00;1.00;;;;;;;;5332259;27;8809;-74
2023/01/29 02:20:23;;;;;;;;;0.60;0.60;;;;;;;;5313595;27;8754;-74
2023/01/29 02:22:54;;;;;;;;;1.40;1.40;;;;;;;;5295959;27;8757;-74
2023/01/29 02:25:40;;;;;;;;;2.20;2.20;;;;;;;;5312502;27;8765;-73
2023/01/29 02:28:24;;;;;;;;;1.00;1.00;;;;;;;;5331553;27;8777;-74
2023/01/29 02:31:00;;;;;;;;;5.20;5.20;;;;;;;;5331502;27;8770;-74
2023/01/29 02:33:40;;;;;;;;;2.40;2.40;;;;;;;;5331513;27;8846;-74
2023/01/29 02:36:29;;;;;;;;;5.80;5.60;;;;;;;;5312420;27;8886;-74
2023/01/29 02:39:06;;;;;;;;;1.40;1.40;;;;;;;;5312543;27;9307;-74
2023/01/29 02:41:49;;;;;;;;;3.00;3.00;;;;;;;;5278763;27;8795;-74
2023/01/29 02:44:37;;;;;;;;;4.00;4.00;;;;;;;;5295395;27;8781;-74
2023/01/29 02:47:24;;;;;;;;;3.60;3.60;;;;;;;;5315300;27;8869;-74
2023/01/29 02:50:02;;;;;;;;;1.40;1.00;;;;;;;;5322225;27;8734;-74
2023/01/29 02:52:38;;;;;;;;;3.00;3.00;;;;;;;;5342025;27;8943;-74
2023/01/29 02:55:34;;;;;;;;;3.00;3.00;;;;;;;;5332130;27;8930;-75
2023/01/29 02:58:18;;;;;;;;;1.80;1.80;;;;;;;;5312825;27;8754;-74
2023/01/29 03:00:52;;;;;;;;;2.60;2.60;;;;;;;;5295630;27;8773;-74
2023/01/29 03:03:36;;;;;;;;;1.00;1.00;;;;;;;;5312440;27;9473;-75
2023/01/29 03:06:29;;;;;;;;;4.00;4.00;;;;;;;;5297514;27;8777;-74
2023/01/29 03:09:03;;;;;;;;;1.00;1.00;;;;;;;;5278426;27;8778;-72
2023/01/29 03:11:38;;;;;;;;;3.60;3.60;;;;;;;;5311661;27;8790;-71
2023/01/29 03:14:15;;;;;;;;;3.40;3.40;;;;;;;;5312390;27;8745;-71
2023/01/29 03:16:51;;;;;;;;;2.60;2.60;;;;;;;;5312077;27;8785;-70
2023/01/29 03:19:34;;;;;;;;;2.60;2.60;;;;;;;;5311865;27;8761;-68
2023/01/29 03:32:29;;;;;;;;;3.60;3.60;;;;;;;;5315646;27;8800;-70
2023/01/29 03:35:04;;;;;;;;;1.00;1.00;;;;;;;;5316259;27;8766;-71
2023/01/29 03:37:45;;;;;;;;;0.40;0.40;;;;;;;;5315700;27;9373;-70
2023/01/29 03:40:16;;;;;;;;;0.80;0.80;;;;;;;;5316201;27;8769;-74
2023/01/29 03:42:53;;;;;;;;;3.80;3.60;;;;;;;;5315525;27;8810;-73
2023/01/29 03:45:42;;;;;;;;;1.40;1.40;;;;;;;;5298830;27;8895;-73
2023/01/29 03:48:28;;;;;;;;;0.60;0.60;;;;;;;;5315378;27;8777;-71
2023/01/29 03:51:14;;;;;;;;;1.00;1.00;;;;;;;;5333944;27;8765;-70
2023/01/29 03:53:45;;;;;;;;;1.00;1.00;;;;;;;;5298727;27;8770;-70
2023/01/29 03:56:36;;;;;;;;;1.00;1.00;;;;;;;;5333738;27;8770;-70
2023/01/29 03:59:28;;;;;;;;;3.00;3.00;;;;;;;;5318597;27;8750;-70
2023/01/29 04:02:18;;;;;;;;;0.00;0.00;;;;;;;;5315187;27;8750;-70
2023/01/29 04:04:51;;;;;;;;;1.40;1.40;;;;;;;;5264838;27;9644;-71
2023/01/29 04:07:24;;;;;;;;;0.80;0.80;;;;;;;;5280802;27;9523;-69
2023/01/29 04:10:10;;;;;;;;;1.00;1.00;;;;;;;;5300952;27;8757;-69
2023/01/29 04:12:49;;;;;;;;;3.00;3.00;;;;;;;;5298214;27;8865;-69
2023/01/29 04:15:23;;;;;;;;;0.00;0.00;;;;;;;;5298266;27;8770;-71
2023/01/29 04:17:55;;;;;;;;;2.60;2.60;;;;;;;;5314455;27;8809;-72
2023/01/29 04:20:45;;;;;;;;;0.20;0.20;;;;;;;;5300494;27;8773;-72
2023/01/29 04:23:19;;;;;;;;;7.00;5.20;;;;;;;;5297746;27;8758;-72
2023/01/29 04:26:06;;;;;;;;;0.00;0.00;;;;;;;;5281077;27;8761;-73
2023/01/29 04:28:50;;;;;;;;;25.40;22.40;;;;;;;;5297709;27;8769;-74
2023/01/29 04:31:30;;;;;;;;;1.00;1.00;;;;;;;;5298188;27;9440;-71
2023/01/29 04:34:10;;;;;;;;;2.20;2.20;;;;;;;;5298092;27;8766;-71
2023/01/29 04:37:06;;;;;;;;;1.00;1.00;;;;;;;;5313937;27;8790;-71
2023/01/29 04:39:49;;;;;;;;;4.00;4.00;;;;;;;;5297347;27;8781;-71
2023/01/29 04:42:29;;;;;;;;;1.40;1.40;;;;;;;;5297220;27;8746;-71
2023/01/29 04:45:05;;;;;;;;;11.60;11.60;;;;;;;;5314623;27;9437;-71
2023/01/29 04:47:59;;;;;;;;;10.00;10.00;;;;;;;;5315015;27;8788;-72
2023/01/29 04:50:36;;;;;;;;;1.80;1.80;;;;;;;;5293838;27;8900;-74
2023/01/29 04:53:10;;;;;;;;;2.20;2.20;;;;;;;;5314482;27;8750;-73
2023/01/29 04:55:55;;;;;;;;;1.00;1.00;;;;;;;;5313866;27;8753;-72
2023/01/29 04:58:33;;;;;;;;;1.40;1.40;;;;;;;;5314577;27;8758;-68
2023/01/29 05:01:06;;;;;;;;;1.00;1.00;;;;;;;;5333034;27;8761;-69
2023/01/29 05:03:39;;;;;;;;;6.80;3.40;;;;;;;;5313224;27;8834;-72
2023/01/29 05:06:11;;;;;;;;;0.00;0.00;;;;;;;;5313593;27;8786;-72
2023/01/29 05:08:42;;;;;;;;;0.80;0.80;;;;;;;;5297211;27;9460;-66
2023/01/29 05:11:32;;;;;;;;;3.20;3.20;;;;;;;;5316452;27;8762;-67
2023/01/29 05:14:06;;;;;;;;;1.00;1.00;;;;;;;;5296513;27;8827;-67
2023/01/29 05:16:42;;;;;;;;;5.20;5.20;;;;;;;;5296172;27;8782;-66
2023/01/29 05:19:14;;;;;;;;;3.00;3.00;;;;;;;;5331356;27;8773;-67
2023/01/29 05:26:08;;;;;;;;;12.40;12.40;;;;;;;;5331708;27;9368;-68
2023/01/29 05:28:40;;;;;;;;;4.40;4.40;;;;;;;;5331470;27;8754;-69
2023/01/29 05:31:11;;;;;;;;;3.00;3.00;;;;;;;;5332217;27;9424;-68
2023/01/29 05:33:42;;;;;;;;;0.00;0.00;;;;;;;;5314169;27;8773;-67
2023/01/29 05:36:13;;;;;;;;;5.20;5.20;;;;;;;;5313484;27;9476;-67
2023/01/29 05:38:44;;;;;;;;;1.80;1.80;;;;;;;;5295504;27;8745;-66
2023/01/29 05:41:16;;;;;;;;;1.00;0.60;;;;;;;;5331708;27;9473;-68
2023/01/29 05:51:48;;;;;;;;;3.80;3.80;;;;;;;;5303608;27;8786;-68
2023/01/29 05:54:20;;;;;;;;;8.60;7.80;;;;;;;;5256093;27;9381;-69
2023/01/29 05:56:51;;;;;;;;;1.00;1.00;;;;;;;;5305380;27;8788;-68
2023/01/29 06:03:46;;;;;;;;;3.00;3.00;;;;;;;;5330674;27;8734;-67
2023/01/29 06:06:17;;;;;;;;;5.00;4.20;;;;;;;;5311987;27;8878;-67
2023/01/29 06:13:12;;;;;;;;;3.40;3.40;;;;;;;;5331586;27;8761;-67
2023/01/29 06:15:45;;;;;;;;;3.00;3.00;;;;;;;;5311512;27;8765;-69
2023/01/29 06:18:16;;;;;;;;;1.40;1.40;;;;;;;;5327854;27;8845;-68
2023/01/29 06:25:36;;;;;;;;;21.40;20.80;;;;;;;;5307017;27;8731;-68
2023/01/29 06:28:07;;;;;;;;;6.40;5.60;;;;;;;;5274718;28;8801;-68
2023/01/29 06:31:01;;;;;;;;;4.00;4.00;;;;;;;;5271803;27;8768;-68
2023/01/29 06:33:33;;;;;;;;;14.00;12.60;;;;;;;;5289799;27;8807;-66
2023/01/29 06:36:04;;;;;;;;;8.40;8.40;;;;;;;;5253736;27;8795;-74
2023/01/29 06:38:35;;;;;;;;;6.80;6.80;;;;;;;;5289436;27;8802;-67
2023/01/29 06:45:36;;;;;;;;;4.00;4.00;;;;;;;;5309279;27;8692;-67
2023/01/29 06:48:08;;;;;;;;;4.80;4.40;;;;;;;;5291018;27;8830;-66
2023/01/29 06:50:39;;;;;;;;;1.00;1.00;;;;;;;;5309044;27;8764;-66
2023/01/29 06:53:29;;;;;;;;;4.80;4.80;;;;;;;;5309414;27;8780;-67
2023/01/29 06:56:01;;;;;;;;;33.40;33.00;;;;;;;;5309001;27;8826;-67
2023/01/29 06:58:31;;;;;;;;;8.20;8.20;;;;;;;;5274006;27;9482;-66
2023/01/29 07:01:07;;;;;;;;;3.60;3.60;;;;;;;;5276633;27;9463;-66
2023/01/29 07:03:40;;;;;;;;;7.40;7.40;;;;;;;;5295288;27;8825;-66
2023/01/29 07:06:30;;;;;;;;;5.20;5.20;;;;;;;;5313430;27;8810;-66
2023/01/29 07:09:01;;;;;;;;;5.40;4.80;;;;;;;;5294961;27;8775;-66
2023/01/29 07:11:51;;;;;;;;;4.00;4.00;;;;;;;;5313565;27;8808;-65
2023/01/29 07:14:21;;;;;;;;;11.50;9.75;;;;;;;;5295046;27;8845;-65
2023/01/29 07:17:11;;;;;;;;;6.00;6.00;;;;;;;;5294769;27;9307;-66
2023/01/29 07:19:41;;;;;;;;;6.25;6.25;;;;;;;;5294309;27;8777;-66
2023/01/29 07:22:13;;;;;;;;;4.60;4.40;;;;;;;;5312882;27;8779;-68
2023/01/29 07:24:44;;;;;;;;;3.80;3.80;;;;;;;;5294607;27;8769;-66
2023/01/29 07:27:15;;;;;;;;;2.60;2.60;;;;;;;;5294700;27;8816;-66
2023/01/29 07:29:46;;;;;;;;;6.00;4.80;;;;;;;;5312838;27;8790;-67
2023/01/29 07:32:17;;;;;;;;;4.50;4.50;;;;;;;;5312683;27;8772;-66
2023/01/29 07:34:48;;;;;;;;;8.60;8.60;;;;;;;;5294558;27;10887;-67
2023/01/29 07:37:19;;;;;;;;;3.20;3.20;;;;;;;;5294555;27;8784;-67
2023/01/29 07:39:50;;;;;;;;;7.00;7.00;;;;;;;;5294461;27;8820;-67
2023/01/29 07:42:21;;;;;;;;;8.20;8.20;;;;;;;;5277278;27;8796;-67
2023/01/29 07:44:52;;;;;;;;;12.00;12.00;;;;;;;;5295096;27;8776;-66
2023/01/29 07:47:41;;;;;;;;;19.00;18.40;;;;;;;;5312434;27;8788;-67
2023/01/29 07:50:12;;;;;;;;;21.60;18.40;;;;;;;;5293939;27;8795;-66
2023/01/29 07:52:43;;;;;;;;;9.00;9.00;;;;;;;;5294093;27;8780;-65
2023/01/29 07:55:14;;;;;;;;;7.50;6.50;;;;;;;;5312194;27;8780;-66
2023/01/29 07:57:45;;;;;;;;;7.00;7.00;;;;;;;;5294326;27;11460;-65
2023/01/29 08:00:16;;;;;;;;;14.80;13.60;;;;;;;;5312069;27;9151;-67
2023/01/29 08:02:47;;;;;;;;;13.20;12.40;;;;;;;;5294272;27;8772;-67
2023/01/29 08:05:18;;;;;;;;;7.00;7.00;;;;;;;;5294420;27;8780;-68
2023/01/29 08:07:53;;;;;;;;;10.60;10.60;;;;;;;;5293770;27;11466;-67
2023/01/29 08:10:24;;;;;;;;;9.40;9.20;;;;;;;;5293943;27;8761;-67
2023/01/29 08:12:56;;;;;;;;;11.50;10.25;;;;;;;;5292654;27;8819;-68
2023/01/29 08:15:28;;;;;;;;;38.40;37.80;;;;;;;;5276820;27;10172;-67
2023/01/29 08:18:00;;;;;;;;;13.00;11.80;;;;;;;;5332688;27;8818;-67
2023/01/29 08:20:31;;;;;;;;;16.20;16.20;;;;;;;;5298023;27;8950;-67
2023/01/29 08:23:03;;;;;;;;;17.40;16.40;;;;;;;;5314835;27;8768;-68
2023/01/29 08:25:34;;;;;;;;;10.00;9.20;;;;;;;;5314361;27;8836;-68
2023/01/29 08:28:05;;;;;;;;;16.00;16.00;;;;;;;;5314443;27;8799;-67
2023/01/29 08:30:36;;;;;;;;;16.00;16.00;;;;;;;;5333100;27;8775;-67
2023/01/29 08:33:07;;;;;;;;;18.25;18.25;;;;;;;;5333682;27;10463;-67
2023/01/29 08:35:40;;;;;;;;;13.40;13.40;;;;;;;;5314766;27;10792;-67
2023/01/29 08:38:10;;;;;;;;;16.20;15.80;;;;;;;;5313999;27;8807;-66
2023/01/29 08:40:42;;;;;;;;;19.50;19.25;;;;;;;;5333447;27;8834;-67
2023/01/29 08:43:31;;;;;;;;;19.60;19.40;;;;;;;;5315051;27;12089;-67
2023/01/29 08:46:02;;;;;;;;;17.00;16.80;;;;;;;;5333968;27;8776;-67
2023/01/29 08:48:34;;;;;;;;;26.60;26.20;;;;;;;;5340337;27;8828;-64
2023/01/29 08:51:05;;;;;;;;;29.40;29.40;;;;;;;;5321966;27;9486;-66
2023/01/29 08:53:36;;;;;;;;;27.00;27.00;;;;;;;;5285048;27;8768;-67
2023/01/29 08:56:07;;;;;;;;;22.50;22.50;;;;;;;;5332509;27;8776;-67
2023/01/29 08:58:38;;;;;;;;;32.20;29.00;;;;;;;;5332150;27;9175;-66
2023/01/29 09:01:09;;;;;;;;;23.75;23.75;;;;;;;;5314511;27;8779;-65
2023/01/29 09:03:42;;;;;;;;;46.80;43.00;;;;;;;;5313720;27;11432;-65
2023/01/29 09:06:13;;;;;;;;;29.00;28.60;;;;;;;;5332127;27;8784;-66
2023/01/29 09:08:44;;;;;;;;;22.40;22.40;;;;;;;;5332397;27;8812;-66
2023/01/29 09:11:15;;;;;;;;;18.60;18.60;;;;;;;;5332221;27;8780;-66
2023/01/29 09:13:46;;;;;;;;;13.00;13.00;;;;;;;;5332243;27;8891;-66
2023/01/29 09:16:17;;;;;;;;;21.25;18.75;;;;;;;;5313266;27;8920;-66
2023/01/29 09:18:48;;;;;;;;;22.00;21.60;;;;;;;;5313104;27;12099;-65
2023/01/29 09:21:22;;;;;;;;;12.25;11.00;;;;;;;;5313252;27;8776;-65
2023/01/29 09:23:53;;;;;;;;;9.80;9.40;;;;;;;;5331696;27;10645;-66
2023/01/29 09:26:24;;;;;;;;;15.25;15.00;;;;;;;;5296026;27;8784;-66
2023/01/29 09:28:55;;;;;;;;;14.00;14.00;;;;;;;;5331962;27;8902;-66
2023/01/29 09:31:26;;;;;;;;;13.25;13.00;;;;;;;;5279782;27;9456;-65
2023/01/29 09:33:57;;;;;;;;;12.80;12.80;;;;;;;;5332019;27;8765;-65
2023/01/29 09:36:28;;;;;;;;;9.60;9.60;;;;;;;;5314068;27;8803;-65
2023/01/29 09:39:17;;;;;;;;;10.60;10.60;;;;;;;;5316347;27;8752;-65
2023/01/29 09:42:00;;;;;;;;;13.00;13.00;;;;;;;;5331643;27;8800;-65
2023/01/29 09:44:37;;;;;;;;;7.00;7.00;;;;;;;;5313714;27;11375;-65
2023/01/29 09:47:13;;;;;;;;;7.00;7.00;;;;;;;;5279064;27;8768;-66
2023/01/29 09:49:52;;;;;;;;;24.80;20.40;;;;;;;;5296428;27;9487;-66
2023/01/29 09:52:23;;;;;;;;;0.60;0.60;;;;;;;;5296412;27;8775;-65
2023/01/29 09:55:03;;;;;;;;;12.00;11.50;;;;;;;;5295770;27;8775;-66
2023/01/29 09:57:34;;;;;;;;;10.20;10.20;;;;;;;;5331535;27;11387;-66
2023/01/29 10:00:05;;;;;;;;;10.00;10.00;;;;;;;;5313111;27;8753;-67
2023/01/29 10:02:55;;;;;;;;;2.40;2.40;;;;;;;;5313089;27;11395;-66
2023/01/29 10:05:32;;;;;;;;;8.40;8.20;;;;;;;;5313001;27;8768;-66
2023/01/29 10:08:06;;;;;;;;;7.60;7.60;;;;;;;;5312833;27;8772;-66
2023/01/29 10:10:52;;;;;;;;;7.60;7.60;;;;;;;;5331167;27;9578;-66
2023/01/29 10:13:31;;;;;;;;;83.00;64.60;;;;;;;;5331426;27;8798;-66
2023/01/29 10:16:02;;;;;;;;;19.00;19.00;;;;;;;;5331110;27;8795;-66
2023/01/29 10:18:54;;;;;;;;;9.60;9.60;;;;;;;;5330320;27;8872;-66
2023/01/29 10:21:34;;;;;;;;;15.00;14.20;;;;;;;;5312150;27;8786;-66
2023/01/29 10:24:08;;;;;;;;;11.20;11.20;;;;;;;;5331084;27;8816;-65
2023/01/29 10:26:39;;;;;;;;;8.00;8.00;;;;;;;;5330777;27;8816;-67
2023/01/29 10:29:15;;;;;;;;;6.60;6.60;;;;;;;;5312428;27;8934;-66
2023/01/29 10:31:48;;;;;;;;;11.20;10.20;;;;;;;;5311716;27;8760;-66
2023/01/29 10:38:43;;;;;;;;;7.20;7.20;;;;;;;;5313675;27;8707;-65
2023/01/29 10:45:52;;;;;;;;;9.20;8.80;;;;;;;;5333753;27;8736;-65
2023/01/29 10:57:09;;;;;;;;;22.20;22.20;;;;;;;;5334628;27;8704;-63
2023/01/29 11:00:11;;;;;;;;;25.60;24.40;;;;;;;;5335005;27;8764;-66
2023/01/29 11:11:47;;;;;;;;;11.80;11.80;;;;;;;;5334728;27;8796;-64
2023/01/29 11:14:24;;;;;;;;;54.80;46.20;;;;;;;;5315653;27;8772;-63
2023/01/29 11:21:26;;;;;;;;;16.80;16.80;;;;;;;;5334419;27;8725;-63
2023/01/29 11:24:14;;;;;;;;;16.80;15.40;;;;;;;;5281972;27;8802;-64
2023/01/29 11:27:12;;;;;;;;;15.20;15.20;;;;;;;;5334377;27;8791;-63
2023/01/29 11:29:44;;;;;;;;;14.40;14.40;;;;;;;;5334101;27;9460;-63
2023/01/29 11:32:27;;;;;;;;;12.60;12.60;;;;;;;;5315985;27;8779;-63
2023/01/29 11:35:01;;;;;;;;;11.40;10.80;;;;;;;;5315901;27;8760;-64
2023/01/29 11:37:38;;;;;;;;;19.40;19.00;;;;;;;;5315510;27;8783;-65
2023/01/29 11:40:27;;;;;;;;;14.80;14.80;;;;;;;;5333937;27;8941;-65
2023/01/29 11:43:10;;;;;;;;;39.50;37.75;;;;;;;;5315192;27;8902;-65
2023/01/29 11:45:41;;;;;;;;;12.40;12.20;;;;;;;;5334395;27;8784;-64
2023/01/29 11:48:16;;;;;;;;;14.20;12.80;;;;;;;;5298123;27;8800;-64
2023/01/29 11:50:52;;;;;;;;;13.20;13.20;;;;;;;;5333973;27;8772;-64
2023/01/29 11:53:37;;;;;;;;;16.80;14.20;;;;;;;;5334065;27;8824;-64
2023/01/29 11:56:17;;;;;;;;;15.00;15.00;;;;;;;;5315454;27;8756;-64
2023/01/29 11:58:49;;;;;;;;;22.00;22.00;;;;;;;;5315826;27;8782;-64
2023/01/29 12:01:32;;;;;;;;;23.20;22.40;;;;;;;;5333432;27;8780;-63
2023/01/29 12:04:11;;;;;;;;;18.00;18.00;;;;;;;;5333403;27;8780;-63
2023/01/29 12:06:43;;;;;;;;;10.80;10.80;;;;;;;;5334272;27;8812;-64
2023/01/29 12:09:18;;;;;;;;;8.80;8.80;;;;;;;;5315315;27;8776;-64
2023/01/29 12:11:51;;;;;;;;;11.00;11.00;;;;;;;;5333243;27;8831;-64
2023/01/29 12:14:33;;;;;;;;;22.40;21.20;;;;;;;;5333559;27;8902;-65
2023/01/29 12:17:03;;;;;;;;;12.20;12.20;;;;;;;;5333528;27;8956;-66
2023/01/29 12:19:57;;;;;;;;;13.00;13.00;;;;;;;;5332867;27;8902;-64
2023/01/29 12:22:46;;;;;;;;;7.40;6.20;;;;;;;;5332966;27;8784;-66
2023/01/29 12:25:35;;;;;;;;;12.40;11.00;;;;;;;;5318008;27;8771;-66
2023/01/29 12:28:32;;;;;;;;;5.40;5.00;;;;;;;;5333053;27;8808;-65
2023/01/29 12:31:22;;;;;;;;;13.20;13.20;;;;;;;;5314552;27;8872;-65
2023/01/29 12:34:18;;;;;;;;;4.60;4.60;;;;;;;;5333790;27;8788;-66
2023/01/29 12:36:54;;;;;;;;;9.80;9.80;;;;;;;;5333066;27;8784;-66
2023/01/29 12:39:25;;;;;;;;;12.40;10.60;;;;;;;;5333316;27;8772;-64
2023/01/29 12:41:56;;;;;;;;;8.60;8.60;;;;;;;;5314851;27;8847;-64
2023/01/29 12:44:27;;;;;;;;;11.40;11.40;;;;;;;;5332791;27;8795;-65
2023/01/29 12:46:59;;;;;;;;;1.00;1.00;;;;;;;;5314644;27;8791;-64
2023/01/29 12:49:37;;;;;;;;;8.80;8.80;;;;;;;;5297032;27;8792;-66
2023/01/29 12:52:35;;;;;;;;;52.80;44.40;;;;;;;;5332085;27;8760;-65
2023/01/29 12:55:06;;;;;;;;;8.40;7.80;;;;;;;;5314048;27;8800;-65
2023/01/29 12:57:36;;;;;;;;;11.00;11.00;;;;;;;;5331850;27;8763;-66
2023/01/29 13:00:15;;;;;;;;;21.20;20.80;;;;;;;;5314098;27;10710;-65
2023/01/29 13:03:06;;;;;;;;;18.20;18.20;;;;;;;;5332357;27;9442;-65
2023/01/29 13:05:59;;;;;;;;;25.20;23.20;;;;;;;;5313686;27;8776;-65
2023/01/29 13:08:40;;;;;;;;;21.60;19.00;;;;;;;;5331840;27;8926;-66
2023/01/29 13:11:36;;;;;;;;;8.20;8.20;;;;;;;;5331935;27;8788;-65
2023/01/29 13:14:30;;;;;;;;;8.20;7.80;;;;;;;;5332000;27;8791;-65
2023/01/29 13:17:25;;;;;;;;;8.20;6.80;;;;;;;;5296344;27;8823;-65
2023/01/29 13:19:57;;;;;;;;;7.00;7.00;;;;;;;;5302546;27;9543;-65
2023/01/29 13:22:33;;;;;;;;;9.20;8.80;;;;;;;;5331728;27;8775;-66
2023/01/29 13:25:04;;;;;;;;;4.40;4.40;;;;;;;;5313607;27;8764;-65
2023/01/29 13:27:54;;;;;;;;;17.40;15.40;;;;;;;;5332442;27;8796;-65
2023/01/29 13:30:29;;;;;;;;;12.00;12.00;;;;;;;;5312956;27;8760;-65
2023/01/29 13:33:08;;;;;;;;;16.40;16.40;;;;;;;;5332044;27;9470;-65
2023/01/29 13:35:41;;;;;;;;;9.80;9.80;;;;;;;;5331042;27;8784;-65
2023/01/29 13:38:32;;;;;;;;;5.80;5.80;;;;;;;;5296164;27;8886;-64
2023/01/29 13:41:04;;;;;;;;;8.80;8.80;;;;;;;;5332171;27;8759;-64
2023/01/29 13:43:37;;;;;;;;;6.60;6.60;;;;;;;;5312797;27;8764;-65
2023/01/29 13:46:10;;;;;;;;;41.00;35.20;;;;;;;;5312930;27;9505;-66
2023/01/29 13:48:45;;;;;;;;;22.80;21.40;;;;;;;;5331388;27;8803;-66
2023/01/29 13:51:35;;;;;;;;;7.00;7.00;;;;;;;;5331510;27;8828;-65
2023/01/29 13:54:13;;;;;;;;;8.00;7.00;;;;;;;;5295855;27;9475;-66
2023/01/29 13:56:55;;;;;;;;;9.80;9.80;;;;;;;;5331537;27;8787;-66
2023/01/29 13:59:44;;;;;;;;;8.60;8.60;;;;;;;;5313092;27;8791;-66
2023/01/29 14:02:20;;;;;;;;;20.20;19.60;;;;;;;;5331993;27;8768;-66
2023/01/29 14:13:46;;;;;;;;;6.40;6.40;;;;;;;;5330881;27;8728;-65
2023/01/29 14:16:17;;;;;;;;;8.80;8.80;;;;;;;;5312023;27;8869;-65
2023/01/29 14:19:01;;;;;;;;;10.00;10.00;;;;;;;;5330815;27;8764;-64
2023/01/29 14:21:34;;;;;;;;;6.80;5.40;;;;;;;;5295104;27;11419;-66
2023/01/29 14:28:29;;;;;;;;;10.00;10.00;;;;;;;;5330829;27;8767;-65
2023/01/29 14:40:13;;;;;;;;;31.80;30.40;;;;;;;;5330970;27;8804;-67
2023/01/29 14:43:07;;;;;;;;;9.60;9.60;;;;;;;;5331378;27;8760;-65
2023/01/29 14:46:19;;;;;;;;;11.60;11.60;;;;;;;;5331444;27;8882;-67
2023/01/29 14:48:50;;;;;;;;;46.40;41.00;;;;;;;;5312121;27;8768;-66
2023/01/29 14:51:22;;;;;;;;;18.60;18.60;;;;;;;;5329692;27;8815;-66
2023/01/29 14:57:41;;;;;;;;;10.40;9.60;;;;;;;;5330997;27;8764;-65
2023/01/29 15:00:17;;;;;;;;;13.60;13.60;;;;;;;;5330616;27;8796;-66
2023/01/29 15:07:11;;;;;;;;;9.80;9.60;;;;;;;;5330463;27;9439;-67
2023/01/29 15:10:05;;;;;;;;;4.00;4.00;;;;;;;;5295079;27;8788;-66
2023/01/29 15:12:59;;;;;;;;;9.40;9.40;;;;;;;;5282959;27;8812;-65
2023/01/29 15:19:46;;;;;;;;;19.00;16.00;;;;;;;;5308660;27;8778;-66
2023/01/29 15:22:19;;;;;;;;;9.20;8.40;;;;;;;;5293540;27;8778;-66
2023/01/29 15:25:25;;;;;;;;;7.00;7.00;;;;;;;;5312924;27;8754;-66
2023/01/29 15:27:57;;;;;;;;;13.60;13.60;;;;;;;;5206239;28;8848;-65
2023/01/29 15:34:52;;;;;;;;;11.00;11.00;;;;;;;;5312505;27;8821;-64
2023/01/29 15:37:41;;;;;;;;;12.40;11.40;;;;;;;;5313637;27;9569;-64
2023/01/29 15:40:14;;;;;;;;;13.80;13.80;;;;;;;;5294204;27;8910;-65
2023/01/29 15:42:47;;;;;;;;;19.40;17.00;;;;;;;;5312432;27;8786;-65
2023/01/29 15:45:21;;;;;;;;;15.00;15.00;;;;;;;;5294010;27;8767;-64
2023/01/29 15:48:04;;;;;;;;;16.20;16.20;;;;;;;;5312323;27;8826;-65
2023/01/29 15:55:05;;;;;;;;;12.80;12.80;;;;;;;;5312233;27;8699;-64
2023/01/29 15:57:39;;;;;;;;;15.80;15.20;;;;;;;;5312674;27;8774;-64
2023/01/29 16:00:36;;;;;;;;;15.20;15.20;;;;;;;;5312614;27;8774;-64
2023/01/29 16:03:29;;;;;;;;;10.40;10.40;;;;;;;;5296803;27;8738;-64
2023/01/29 16:06:01;;;;;;;;;90.00;69.80;;;;;;;;5293383;27;8908;-64
2023/01/29 16:08:33;;;;;;;;;17.20;17.20;;;;;;;;5312334;27;8802;-64
2023/01/29 16:11:05;;;;;;;;;13.00;13.00;;;;;;;;5311496;27;8917;-64
2023/01/29 16:13:38;;;;;;;;;14.20;14.20;;;;;;;;5293306;27;8774;-64
2023/01/29 16:16:15;;;;;;;;;5.20;5.20;;;;;;;;5276825;27;8789;-64
2023/01/29 16:18:47;;;;;;;;;20.60;17.20;;;;;;;;5306472;27;8826;-64
2023/01/29 16:21:31;;;;;;;;;14.20;14.20;;;;;;;;5314961;27;8776;-64
2023/01/29 16:24:08;;;;;;;;;17.20;15.00;;;;;;;;5314623;27;8819;-64
2023/01/29 16:26:44;;;;;;;;;12.40;11.40;;;;;;;;5332627;27;8768;-65
2023/01/29 16:29:17;;;;;;;;;13.20;13.20;;;;;;;;5315184;27;8780;-65
2023/01/29 16:31:50;;;;;;;;;10.20;10.20;;;;;;;;5332977;27;8760;-64
2023/01/29 16:34:24;;;;;;;;;13.60;12.60;;;;;;;;5296415;27;8918;-64
2023/01/29 16:36:55;;;;;;;;;72.60;52.00;;;;;;;;5314146;27;8898;-66
2023/01/29 16:39:29;;;;;;;;;14.60;14.00;;;;;;;;5332853;27;8795;-65
2023/01/29 16:42:06;;;;;;;;;22.00;21.40;;;;;;;;5314559;27;8827;-64
2023/01/29 16:44:38;;;;;;;;;14.80;14.80;;;;;;;;5333907;27;8767;-63
2023/01/29 16:47:14;;;;;;;;;13.00;13.00;;;;;;;;5332369;27;8871;-66
2023/01/29 16:50:08;;;;;;;;;18.20;17.60;;;;;;;;5332634;27;8776;-65
2023/01/29 16:53:13;;;;;;;;;11.20;11.20;;;;;;;;5293330;27;8783;-66
2023/01/29 16:55:48;;;;;;;;;13.40;12.40;;;;;;;;5314048;27;8787;-64
2023/01/29 16:58:21;;;;;;;;;19.40;19.40;;;;;;;;5314356;27;8790;-64
2023/01/29 17:01:10;;;;;;;;;18.60;17.60;;;;;;;;5332650;27;8764;-64
2023/01/29 17:03:41;;;;;;;;;19.00;19.00;;;;;;;;5333468;27;8776;-64
2023/01/29 17:06:31;;;;;;;;;16.60;16.60;;;;;;;;5316516;27;12072;-63
2023/01/29 17:09:03;;;;;;;;;19.40;19.40;;;;;;;;5332438;27;8876;-63
2023/01/29 17:11:34;;;;;;;;;16.20;16.20;;;;;;;;5296295;27;8784;-65
2023/01/29 17:14:06;;;;;;;;;24.00;23.25;;;;;;;;5332523;27;8764;-65
2023/01/29 17:16:52;;;;;;;;;22.00;22.00;;;;;;;;5332153;27;10481;-64
2023/01/29 17:19:41;;;;;;;;;20.00;18.20;;;;;;;;5299155;27;8776;-65
2023/01/29 17:22:15;;;;;;;;;13.80;12.80;;;;;;;;5331614;27;9565;-64
2023/01/29 17:24:50;;;;;;;;;16.40;16.40;;;;;;;;5331983;27;9459;-64
2023/01/29 17:27:21;;;;;;;;;18.00;17.60;;;;;;;;5313483;27;8804;-65
2023/01/29 17:29:52;;;;;;;;;13.20;10.80;;;;;;;;5312890;27;8810;-65
2023/01/29 17:32:24;;;;;;;;;20.60;20.20;;;;;;;;5313116;27;9446;-66
2023/01/29 17:34:55;;;;;;;;;22.60;20.40;;;;;;;;5330891;27;8749;-65
2023/01/29 17:37:26;;;;;;;;;27.00;25.00;;;;;;;;5313296;27;8784;-64
2023/01/29 17:39:59;;;;;;;;;17.80;17.20;;;;;;;;5331577;27;8824;-65
2023/01/29 17:42:31;;;;;;;;;16.40;16.40;;;;;;;;5312735;27;8779;-64
2023/01/29 17:45:03;;;;;;;;;11.00;10.00;;;;;;;;5331181;27;8768;-64
2023/01/29 17:47:34;;;;;;;;;21.80;21.80;;;;;;;;5331237;27;8804;-64
2023/01/29 17:50:15;;;;;;;;;27.40;25.00;;;;;;;;5313322;27;8799;-64
2023/01/29 17:52:45;;;;;;;;;16.00;14.80;;;;;;;;5312704;27;8780;-64
2023/01/29 17:55:16;;;;;;;;;18.00;18.00;;;;;;;;5331219;27;8784;-64